createdAt,value
2022-10-01T00:00:26.171Z,10.58
2022-10-01T00:02:53.673Z,10.47
2022-10-01T00:05:21.039Z,10.54
2022-10-01T00:07:47.839Z,10.53
2022-10-01T00:10:15.762Z,10.60
2022-10-01T00:12:48.796Z,10.57
2022-10-01T00:15:16.535Z,10.57
2022-10-01T00:17:43.293Z,10.54
2022-10-01T00:20:14.225Z,10.54
2022-10-01T00:22:41.175Z,10.64
2022-10-01T00:25:07.639Z,10.60
2022-10-01T00:27:34.022Z,10.65
2022-10-01T00:30:00.391Z,10.54
2022-10-01T00:32:26.697Z,10.53
2022-10-01T00:34:53.005Z,10.64
2022-10-01T00:37:19.357Z,10.75
2022-10-01T00:39:45.657Z,10.70
2022-10-01T00:42:23.567Z,10.65
2022-10-01T00:44:50.576Z,10.67
2022-10-01T00:47:36.735Z,10.66
2022-10-01T00:50:05.641Z,10.63
2022-10-01T00:52:34.072Z,10.76
2022-10-01T00:55:15.034Z,10.67
2022-10-01T00:57:43.545Z,10.90
2022-10-01T01:00:11.298Z,10.95
2022-10-01T01:02:37.747Z,10.80
2022-10-01T01:05:04.608Z,10.77
2022-10-01T01:07:32.979Z,10.82
2022-10-01T01:10:01.702Z,10.89
2022-10-01T01:12:55.911Z,10.86
2022-10-01T01:15:41.345Z,10.82
2022-10-01T01:18:22.651Z,10.93
2022-10-01T01:20:48.916Z,10.88
2022-10-01T01:23:15.174Z,10.84
2022-10-01T01:26:19.449Z,10.96
2022-10-01T01:28:57.033Z,10.98
2022-10-01T01:31:29.940Z,10.98
2022-10-01T01:33:58.804Z,11.07
2022-10-01T01:36:32.409Z,10.95
2022-10-01T01:39:04.199Z,10.88
2022-10-01T01:41:37.350Z,10.98
2022-10-01T01:44:08.501Z,11.05
2022-10-01T01:46:41.478Z,10.89
2022-10-01T01:49:07.932Z,10.90
2022-10-01T01:51:43.404Z,10.98
2022-10-01T01:54:09.888Z,10.83
2022-10-01T01:56:36.681Z,11.07
2022-10-01T01:59:03.711Z,11.14
2022-10-01T02:01:46.121Z,11.20
2022-10-01T02:04:24.422Z,11.20
2022-10-01T02:07:18.715Z,11.30
2022-10-01T02:09:55.363Z,11.19
2022-10-01T02:13:03.266Z,11.20
2022-10-01T02:15:52.913Z,11.20
2022-10-01T02:18:34.003Z,11.19
2022-10-01T02:21:19.067Z,11.29
2022-10-01T02:23:56.909Z,11.14
2022-10-01T02:26:24.693Z,11.15
2022-10-01T02:28:55.157Z,11.15
2022-10-01T02:31:23.738Z,11.24
2022-10-01T02:33:53.375Z,11.27
2022-10-01T02:36:21.694Z,11.29
2022-10-01T02:38:49.018Z,11.27
2022-10-01T02:41:20.530Z,11.10
2022-10-01T02:44:01.199Z,11.05
2022-10-01T02:46:33.499Z,10.85
2022-10-01T02:49:00.044Z,10.75
2022-10-01T02:52:01.892Z,10.62
2022-10-01T02:54:34.638Z,10.45
2022-10-01T02:57:00.968Z,10.21
2022-10-01T02:59:27.335Z,10.20
2022-10-01T03:01:54.055Z,10.10
2022-10-01T03:04:20.491Z,10.00
2022-10-01T03:06:46.837Z,9.83
2022-10-01T03:09:13.424Z,9.83
2022-10-01T03:11:39.827Z,9.80
2022-10-01T03:14:06.163Z,9.66
2022-10-01T03:16:33.172Z,9.61
2022-10-01T03:18:59.463Z,9.55
2022-10-01T03:21:25.804Z,9.57
2022-10-01T03:23:52.153Z,9.47
2022-10-01T03:26:18.466Z,9.59
2022-10-01T03:28:44.761Z,9.50
2022-10-01T03:31:11.579Z,9.47
2022-10-01T03:33:37.920Z,9.59
2022-10-01T03:36:04.858Z,9.53
2022-10-01T03:38:31.589Z,9.60
2022-10-01T03:40:57.934Z,9.56
2022-10-01T03:43:24.248Z,9.53
2022-10-01T03:45:50.615Z,9.50
2022-10-01T03:48:16.979Z,9.45
2022-10-01T03:50:43.291Z,9.46
2022-10-01T03:53:09.628Z,9.47
2022-10-01T03:55:35.938Z,9.47
2022-10-01T03:58:02.243Z,9.46
2022-10-01T04:00:28.546Z,9.49
2022-10-01T04:02:54.918Z,9.38
2022-10-01T04:05:21.263Z,9.38
2022-10-01T04:07:47.587Z,9.34
2022-10-01T04:10:14.026Z,9.35
2022-10-01T04:12:40.339Z,9.28
2022-10-01T04:15:07.099Z,9.39
2022-10-01T04:17:33.408Z,9.41
2022-10-01T04:19:59.818Z,9.38
2022-10-01T04:22:26.159Z,9.42
2022-10-01T04:24:52.462Z,9.37
2022-10-01T04:27:18.770Z,9.39
2022-10-01T04:29:45.084Z,9.40
2022-10-01T04:32:11.467Z,9.33
2022-10-01T04:34:37.789Z,9.30
2022-10-01T04:37:04.150Z,9.38
2022-10-01T04:39:30.443Z,9.40
2022-10-01T04:41:56.763Z,9.49
2022-10-01T04:44:23.206Z,9.47
2022-10-01T04:46:49.538Z,9.42
2022-10-01T04:49:15.954Z,9.48
2022-10-01T04:51:42.250Z,9.49
2022-10-01T04:54:08.565Z,9.38
2022-10-01T04:56:34.867Z,9.35
2022-10-01T04:59:01.251Z,9.30
2022-10-01T05:01:27.656Z,9.41
2022-10-01T05:03:53.996Z,9.31
2022-10-01T05:06:20.290Z,9.35
2022-10-01T05:08:46.624Z,9.31
2022-10-01T05:11:12.938Z,9.32
2022-10-01T05:13:39.331Z,9.27
2022-10-01T05:16:05.815Z,9.37
2022-10-01T05:18:32.177Z,9.32
2022-10-01T05:20:58.498Z,9.29
2022-10-01T05:23:24.872Z,9.25
2022-10-01T05:25:51.165Z,9.25
2022-10-01T05:28:22.194Z,9.34
2022-10-01T05:30:49.242Z,9.35
2022-10-01T05:33:15.604Z,9.28
2022-10-01T05:35:42.236Z,9.37
2022-10-01T05:38:08.634Z,9.38
2022-10-01T05:40:34.963Z,9.30
2022-10-01T05:43:01.630Z,9.42
2022-10-01T05:45:29.776Z,9.47
2022-10-01T05:47:57.902Z,9.48
2022-10-01T05:50:24.483Z,9.46
2022-10-01T05:52:51.896Z,9.39
2022-10-01T05:55:18.524Z,9.41
2022-10-01T05:57:45.082Z,9.41
2022-10-01T06:00:11.963Z,9.43
2022-10-01T06:02:38.765Z,9.44
2022-10-01T06:05:05.955Z,9.42
2022-10-01T06:07:32.419Z,9.45
2022-10-01T06:09:58.724Z,9.45
2022-10-01T06:12:25.670Z,9.48
2022-10-01T06:14:51.991Z,9.52
2022-10-01T06:17:18.284Z,9.54
2022-10-01T06:19:44.614Z,9.49
2022-10-01T06:22:10.926Z,9.44
2022-10-01T06:24:37.230Z,9.53
2022-10-01T06:27:03.867Z,9.52
2022-10-01T06:29:30.173Z,9.64
2022-10-01T06:32:08.754Z,9.63
2022-10-01T06:34:35.523Z,9.68
2022-10-01T06:37:01.838Z,9.62
2022-10-01T06:39:28.143Z,9.68
2022-10-01T06:41:54.485Z,9.77
2022-10-01T06:44:26.313Z,9.63
2022-10-01T06:46:52.650Z,9.81
2022-10-01T06:49:19.188Z,9.76
2022-10-01T06:51:48.597Z,9.75
2022-10-01T06:54:14.911Z,9.72
2022-10-01T06:56:41.234Z,9.88
2022-10-01T06:59:07.872Z,9.90
2022-10-01T07:01:34.600Z,9.97
2022-10-01T07:04:01.449Z,10.02
2022-10-01T07:06:27.863Z,9.98
2022-10-01T07:08:54.287Z,9.99
2022-10-01T07:11:20.637Z,10.04
2022-10-01T07:13:49.971Z,10.15
2022-10-01T07:16:18.737Z,10.24
2022-10-01T07:18:45.101Z,10.25
2022-10-01T07:21:11.501Z,10.16
2022-10-01T07:23:37.835Z,10.13
2022-10-01T07:26:06.260Z,10.06
2022-10-01T07:28:32.555Z,10.27
2022-10-01T07:31:01.892Z,10.16
2022-10-01T07:33:28.508Z,10.21
2022-10-01T07:35:55.009Z,10.21
2022-10-01T07:38:21.744Z,10.29
2022-10-01T07:40:52.343Z,10.32
2022-10-01T07:43:18.683Z,10.33
2022-10-01T07:45:45.539Z,10.28
2022-10-01T07:48:11.883Z,10.36
2022-10-01T07:50:38.203Z,10.35
2022-10-01T07:53:04.492Z,10.28
2022-10-01T07:55:30.833Z,10.45
2022-10-01T07:57:58.621Z,10.40
2022-10-01T08:00:26.364Z,10.29
2022-10-01T08:02:54.640Z,10.26
2022-10-01T08:05:23.916Z,10.36
2022-10-01T08:07:50.402Z,10.48
2022-10-01T08:10:19.423Z,10.51
2022-10-01T08:12:46.145Z,10.57
2022-10-01T08:15:15.915Z,10.66
2022-10-01T08:17:43.250Z,10.56
2022-10-01T08:20:11.830Z,10.67
2022-10-01T08:22:41.817Z,10.67
2022-10-01T08:25:09.387Z,10.80
2022-10-01T08:27:35.892Z,10.91
2022-10-01T08:30:02.233Z,10.96
2022-10-01T08:32:28.607Z,11.01
2022-10-01T08:34:56.748Z,11.15
2022-10-01T08:37:29.423Z,11.37
2022-10-01T08:39:56.480Z,11.49
2022-10-01T08:42:47.339Z,11.40
2022-10-01T08:45:45.821Z,11.42
2022-10-01T08:48:28.029Z,11.53
2022-10-01T08:50:59.030Z,11.78
2022-10-01T08:53:40.325Z,11.82
2022-10-01T08:56:21.612Z,12.03
2022-10-01T08:58:56.562Z,12.39
2022-10-01T09:01:22.924Z,12.17
2022-10-01T09:03:49.680Z,12.27
2022-10-01T09:06:24.201Z,12.35
2022-10-01T09:09:02.560Z,12.24
2022-10-01T09:11:32.154Z,12.24
2022-10-01T09:14:04.789Z,12.24
2022-10-01T09:16:42.063Z,12.35
2022-10-01T09:19:48.040Z,12.04
2022-10-01T09:22:31.131Z,12.00
2022-10-01T09:25:11.938Z,12.08
2022-10-01T09:27:38.658Z,12.11
2022-10-01T09:30:12.177Z,12.25
2022-10-01T09:32:54.911Z,12.26
2022-10-01T09:35:32.112Z,12.39
2022-10-01T09:38:09.890Z,12.40
2022-10-01T09:40:50.484Z,12.63
2022-10-01T09:43:16.955Z,12.72
2022-10-01T09:45:43.348Z,12.71
2022-10-01T09:48:39.001Z,12.75
2022-10-01T09:51:14.233Z,12.71
2022-10-01T09:53:44.473Z,12.87
2022-10-01T09:56:21.586Z,12.82
2022-10-01T09:58:53.578Z,12.59
2022-10-01T10:01:31.420Z,12.62
2022-10-01T10:03:58.057Z,12.66
2022-10-01T10:06:28.396Z,12.64
2022-10-01T10:08:57.191Z,12.85
2022-10-01T10:11:31.945Z,12.96
2022-10-01T10:14:01.590Z,13.08
2022-10-01T10:16:44.180Z,13.16
2022-10-01T10:19:47.664Z,13.25
2022-10-01T10:22:22.546Z,13.48
2022-10-01T10:24:48.823Z,13.64
2022-10-01T10:27:25.532Z,13.86
2022-10-01T10:30:21.242Z,14.32
2022-10-01T10:32:47.798Z,14.60
2022-10-01T10:35:18.384Z,14.61
2022-10-01T10:37:56.450Z,14.69
2022-10-01T10:40:29.334Z,14.69
2022-10-01T10:42:58.509Z,14.89
2022-10-01T10:45:35.527Z,14.98
2022-10-01T10:48:05.064Z,15.35
2022-10-01T10:50:35.380Z,15.45
2022-10-01T10:53:21.840Z,15.63
2022-10-01T10:56:00.132Z,15.89
2022-10-01T10:58:29.141Z,16.01
2022-10-01T11:00:58.869Z,16.34
2022-10-01T11:03:29.384Z,16.65
2022-10-01T11:06:03.461Z,16.59
2022-10-01T11:08:30.089Z,16.20
2022-10-01T11:11:08.986Z,16.06
2022-10-01T11:14:04.795Z,16.04
2022-10-01T11:16:59.056Z,16.01
2022-10-01T11:19:37.577Z,15.94
2022-10-01T11:22:19.081Z,15.81
2022-10-01T11:25:05.597Z,15.57
2022-10-01T11:27:53.589Z,15.68
2022-10-01T11:30:23.977Z,15.81
2022-10-01T11:33:13.509Z,15.71
2022-10-01T11:35:58.403Z,15.78
2022-10-01T11:38:33.013Z,16.00
2022-10-01T11:41:26.302Z,16.27
2022-10-01T11:44:01.666Z,16.31
2022-10-01T11:46:41.683Z,16.17
2022-10-01T11:49:24.651Z,15.97
2022-10-01T11:52:06.664Z,16.30
2022-10-01T11:54:35.977Z,16.44
2022-10-01T11:57:04.798Z,16.73
2022-10-01T11:59:38.891Z,16.98
2022-10-01T12:02:24.184Z,17.21
2022-10-01T12:04:58.388Z,17.06
2022-10-01T12:08:02.267Z,16.68
2022-10-01T12:10:48.081Z,16.12
2022-10-01T12:13:45.395Z,15.84
2022-10-01T12:16:20.711Z,15.92
2022-10-01T12:18:54.532Z,15.99
2022-10-01T12:21:26.418Z,16.50
2022-10-01T12:24:03.230Z,16.70
2022-10-01T12:26:32.870Z,16.85
2022-10-01T12:29:08.623Z,16.74
2022-10-01T12:32:02.730Z,16.33
2022-10-01T12:34:38.027Z,16.28
2022-10-01T12:37:19.597Z,15.88
2022-10-01T12:40:04.746Z,15.41
2022-10-01T12:42:43.323Z,15.05
2022-10-01T12:45:40.064Z,15.26
2022-10-01T12:48:15.816Z,15.41
2022-10-01T12:51:15.340Z,15.23
2022-10-01T12:53:52.981Z,15.03
2022-10-01T12:56:52.546Z,15.31
2022-10-01T12:59:30.364Z,15.61
2022-10-01T13:02:21.171Z,15.93
2022-10-01T13:05:16.293Z,16.22
2022-10-01T13:08:09.942Z,16.55
2022-10-01T13:11:00.778Z,16.44
2022-10-01T13:13:29.724Z,16.70
2022-10-01T13:16:06.198Z,16.53
2022-10-01T13:19:02.883Z,16.59
2022-10-01T13:21:29.152Z,16.60
2022-10-01T13:24:11.451Z,16.95
2022-10-01T13:26:50.537Z,17.32
2022-10-01T13:29:35.421Z,17.77
2022-10-01T13:32:04.601Z,17.51
2022-10-01T13:34:37.918Z,16.89
2022-10-01T13:37:10.222Z,16.39
2022-10-01T13:39:39.538Z,13.69
2022-10-01T13:42:05.968Z,10.96
2022-10-01T13:44:35.945Z,9.94
2022-10-01T13:47:06.158Z,9.56
2022-10-01T13:49:33.728Z,9.39
2022-10-01T13:52:00.876Z,9.48
2022-10-01T13:54:39.608Z,9.46
2022-10-01T13:57:09.379Z,9.58
2022-10-01T13:59:37.552Z,9.72
2022-10-01T14:02:28.719Z,9.73
2022-10-01T14:04:57.325Z,9.93
2022-10-01T14:07:33.655Z,10.05
2022-10-01T14:10:01.265Z,10.05
2022-10-01T14:12:36.130Z,10.16
2022-10-01T14:15:13.494Z,10.17
2022-10-01T14:17:41.571Z,10.27
2022-10-01T14:20:08.784Z,10.37
2022-10-01T14:23:11.585Z,10.59
2022-10-01T14:25:55.371Z,10.94
2022-10-01T14:28:32.891Z,11.03
2022-10-01T14:31:05.447Z,11.12
2022-10-01T14:34:05.793Z,11.03
2022-10-01T14:36:35.513Z,11.06
2022-10-01T14:39:13.135Z,10.99
2022-10-01T14:41:39.489Z,10.99
2022-10-01T14:44:21.106Z,10.99
2022-10-01T14:46:51.971Z,11.02
2022-10-01T14:49:26.192Z,11.07
2022-10-01T14:51:58.355Z,11.22
2022-10-01T14:54:25.380Z,11.41
2022-10-01T14:56:52.849Z,11.56
2022-10-01T14:59:37.328Z,11.54
2022-10-01T15:02:17.384Z,11.43
2022-10-01T15:04:51.273Z,11.55
2022-10-01T15:07:18.289Z,11.62
2022-10-01T15:09:46.166Z,11.76
2022-10-01T15:12:14.813Z,11.91
2022-10-01T15:14:42.147Z,11.97
2022-10-01T15:17:18.096Z,11.97
2022-10-01T15:19:46.185Z,11.92
2022-10-01T15:22:13.230Z,12.06
2022-10-01T15:24:47.913Z,12.14
2022-10-01T15:27:18.423Z,12.20
2022-10-01T15:29:46.642Z,11.97
2022-10-01T15:32:16.766Z,12.14
2022-10-01T15:34:48.197Z,12.38
2022-10-01T15:37:22.093Z,12.49
2022-10-01T15:39:50.245Z,12.58
2022-10-01T15:42:23.910Z,12.49
2022-10-01T15:44:50.236Z,12.37
2022-10-01T15:47:23.668Z,12.28
2022-10-01T15:50:13.267Z,12.24
2022-10-01T15:52:55.008Z,12.17
2022-10-01T15:55:26.506Z,12.29
2022-10-01T15:58:17.857Z,12.26
2022-10-01T16:00:57.386Z,12.12
2022-10-01T16:03:30.885Z,12.08
2022-10-01T16:05:58.651Z,12.12
2022-10-01T16:08:28.917Z,12.23
2022-10-01T16:11:15.586Z,12.27
2022-10-01T16:13:47.429Z,12.26
2022-10-01T16:16:13.764Z,12.24
2022-10-01T16:18:41.512Z,12.16
2022-10-01T16:21:10.478Z,12.12
2022-10-01T16:23:39.724Z,11.99
2022-10-01T16:26:29.198Z,11.83
2022-10-01T16:28:56.327Z,11.80
2022-10-01T16:31:26.407Z,11.73
2022-10-01T16:33:52.981Z,11.60
2022-10-01T16:36:21.075Z,11.58
2022-10-01T16:38:47.956Z,11.46
2022-10-01T16:41:20.290Z,11.59
2022-10-01T16:43:46.623Z,11.47
2022-10-01T16:46:13.014Z,11.40
2022-10-01T16:48:39.384Z,11.51
2022-10-01T16:51:05.931Z,11.38
2022-10-01T16:53:32.502Z,11.49
2022-10-01T16:55:58.856Z,11.50
2022-10-01T16:58:25.259Z,11.52
2022-10-01T17:00:51.802Z,11.44
2022-10-01T17:03:21.689Z,11.50
2022-10-01T17:05:48.321Z,11.57
2022-10-01T17:08:14.690Z,11.47
2022-10-01T17:10:46.381Z,11.49
2022-10-01T17:13:14.059Z,11.46
2022-10-01T17:15:41.139Z,11.45
2022-10-01T17:18:08.019Z,11.40
2022-10-01T17:20:34.421Z,11.36
2022-10-01T17:23:00.728Z,11.28
2022-10-01T17:25:30.853Z,11.26
2022-10-01T17:27:57.973Z,11.31
2022-10-01T17:30:24.410Z,11.42
2022-10-01T17:32:50.766Z,11.47
2022-10-01T17:35:17.114Z,11.54
2022-10-01T17:37:43.473Z,11.56
2022-10-01T17:40:10.587Z,11.66
2022-10-01T17:42:37.053Z,11.63
2022-10-01T17:45:06.724Z,11.57
2022-10-01T17:47:33.081Z,11.43
2022-10-01T17:49:59.643Z,11.19
2022-10-01T17:52:25.994Z,11.24
2022-10-01T17:54:52.406Z,11.12
2022-10-01T17:57:18.730Z,11.00
2022-10-01T17:59:45.045Z,10.92
2022-10-01T18:02:36.623Z,10.82
2022-10-01T18:04:58.863Z,10.73
2022-10-01T18:07:25.283Z,10.56
2022-10-01T18:09:51.707Z,10.43
2022-10-01T18:12:18.656Z,10.36
2022-10-01T18:14:45.034Z,10.26
2022-10-01T18:17:11.411Z,10.19
2022-10-01T18:19:54.080Z,10.17
2022-10-01T18:22:21.048Z,10.09
2022-10-01T18:24:47.501Z,10.14
2022-10-01T18:27:13.987Z,10.14
2022-10-01T18:29:40.328Z,10.09
2022-10-01T18:32:14.606Z,10.07
2022-10-01T18:35:01.554Z,10.00
2022-10-01T18:37:42.584Z,9.95
2022-10-01T18:40:16.227Z,10.15
2022-10-01T18:43:00.674Z,10.17
2022-10-01T18:45:39.034Z,10.29
2022-10-01T18:48:11.236Z,10.31
2022-10-01T18:51:08.139Z,10.31
2022-10-01T18:54:07.832Z,10.30
2022-10-01T18:56:37.107Z,10.48
2022-10-01T18:59:34.827Z,10.38
2022-10-01T19:02:20.425Z,10.29
2022-10-01T19:05:01.846Z,10.41
2022-10-01T19:07:49.599Z,10.42
2022-10-01T19:10:22.055Z,10.46
2022-10-01T19:13:05.817Z,10.47
2022-10-01T19:15:50.721Z,10.25
2022-10-01T19:18:43.169Z,10.19
2022-10-01T19:21:21.325Z,10.53
2022-10-01T19:24:17.359Z,10.18
2022-10-01T19:26:52.400Z,10.11
2022-10-01T19:29:24.804Z,10.03
2022-10-01T19:32:02.137Z,9.96
2022-10-01T19:34:52.242Z,9.96
2022-10-01T19:37:39.153Z,9.78
2022-10-01T19:40:27.911Z,9.66
2022-10-01T19:43:06.910Z,9.73
2022-10-01T19:45:43.123Z,9.77
2022-10-01T19:48:26.212Z,9.86
2022-10-01T19:50:59.210Z,9.96
2022-10-01T19:53:35.214Z,10.00
2022-10-01T19:56:02.280Z,10.08
2022-10-01T19:58:28.836Z,10.19
2022-10-01T20:00:57.626Z,10.25
2022-10-01T20:03:54.320Z,10.25
2022-10-01T20:06:37.471Z,10.27
2022-10-01T20:09:27.851Z,10.27
2022-10-01T20:12:31.526Z,10.32
2022-10-01T20:15:24.854Z,10.37
2022-10-01T20:17:51.131Z,10.44
2022-10-01T20:20:26.253Z,10.44
2022-10-01T20:23:19.922Z,10.43
2022-10-01T20:26:14.038Z,10.36
2022-10-01T20:29:02.161Z,10.42
2022-10-01T20:31:34.040Z,10.56
2022-10-01T20:34:09.534Z,10.44
2022-10-01T20:36:43.825Z,10.55
2022-10-01T20:39:19.505Z,10.67
2022-10-01T20:41:49.175Z,10.67
2022-10-01T20:44:22.274Z,10.59
2022-10-01T20:46:53.264Z,10.55
2022-10-01T20:49:32.399Z,10.63
2022-10-01T20:52:30.327Z,10.72
2022-10-01T20:55:03.155Z,10.75
2022-10-01T20:57:44.706Z,10.76
2022-10-01T21:00:21.879Z,10.70
2022-10-01T21:02:56.089Z,10.66
2022-10-01T21:05:53.502Z,10.61
2022-10-01T21:08:25.910Z,10.54
2022-10-01T21:10:54.335Z,10.37
2022-10-01T21:13:29.725Z,10.31
2022-10-01T21:16:14.678Z,10.16
2022-10-01T21:19:06.756Z,10.00
2022-10-01T21:21:55.278Z,9.89
2022-10-01T21:24:56.289Z,9.78
2022-10-01T21:28:00.789Z,9.90
2022-10-01T21:30:36.793Z,9.96
2022-10-01T21:33:14.061Z,10.05
2022-10-01T21:35:52.518Z,10.10
2022-10-01T21:38:30.870Z,10.24
2022-10-01T21:41:11.899Z,10.38
2022-10-01T21:44:11.210Z,10.43
2022-10-01T21:46:52.950Z,10.49
2022-10-01T21:49:44.008Z,10.39
2022-10-01T21:52:46.241Z,10.44
2022-10-01T21:55:24.969Z,10.49
2022-10-01T21:58:22.294Z,10.52
2022-10-01T22:01:08.843Z,10.35
2022-10-01T22:03:43.320Z,10.37
2022-10-01T22:06:17.696Z,10.35
2022-10-01T22:09:07.179Z,10.19
2022-10-01T22:11:39.150Z,10.07
2022-10-01T22:14:15.238Z,10.13
2022-10-01T22:16:49.961Z,10.11
2022-10-01T22:19:25.715Z,10.06
2022-10-01T22:21:59.303Z,9.92
2022-10-01T22:24:32.086Z,9.98
2022-10-01T22:27:04.163Z,9.93
2022-10-01T22:29:32.633Z,9.93
2022-10-01T22:32:03.216Z,9.81
2022-10-01T22:34:35.824Z,9.91
2022-10-01T22:37:08.017Z,9.82
2022-10-01T22:39:39.474Z,9.81
2022-10-01T22:42:32.255Z,9.87
2022-10-01T22:45:06.038Z,9.69
2022-10-01T22:47:32.278Z,9.71
2022-10-01T22:50:16.527Z,9.61
2022-10-01T22:52:59.110Z,9.57
2022-10-01T22:55:30.920Z,9.56
2022-10-01T22:58:05.395Z,9.59
2022-10-01T23:00:39.179Z,9.60
2022-10-01T23:03:11.416Z,9.54
2022-10-01T23:05:40.691Z,9.61
2022-10-01T23:08:19.980Z,9.58
2022-10-01T23:10:59.924Z,9.72
2022-10-01T23:13:35.342Z,9.63
2022-10-01T23:16:21.378Z,9.64
2022-10-01T23:19:38.170Z,9.71
2022-10-01T23:22:15.280Z,9.69
2022-10-01T23:25:07.906Z,9.59
2022-10-01T23:28:01.950Z,9.55
2022-10-01T23:30:52.300Z,9.51
2022-10-01T23:34:20.378Z,9.50
2022-10-01T23:36:56.246Z,9.54
2022-10-01T23:39:34.949Z,9.70
2022-10-01T23:42:11.982Z,9.79
2022-10-01T23:45:01.866Z,9.88
2022-10-01T23:47:39.865Z,9.96
2022-10-01T23:50:17.293Z,10.07
2022-10-01T23:52:51.830Z,10.11
2022-10-01T23:55:25.766Z,10.10
2022-10-01T23:57:58.601Z,10.03
